Terminal Aerodrome Forecast
Issued by NWS Sterling, VA

Current Version | Previous Version | Graphics & Text | Print | Product List | Glossary On
Versions: 1 2 3 4 5 6 7 8 9 10 11 12 13 14 15 16 17 18 19 20 21 22 23
000
FTUS41 KLWX 231731
TAFMRB
TAF
KMRB 231731Z 2318/2418 06010G22KT 2SM -RA OVC010 WS020/07040KT
     FM240000 03010KT 1SM -RA OVC003
     FM240400 35009KT 1SM -SHRA OVC003
     FM240600 34008KT P6SM OVC008
     FM241200 32009KT P6SM BKN025
     FM241600 31013G21KT P6SM BKN025=

USA.gov is the U.S. government's official web portal to all federal, state and local government web resources and services.